Welcome to Northern Hawkes Bay. New Zealand.
PWS Header
      nz Flag



Hit Counter


W3C Valid W3C Valid logo


    Wairoa

Select any of the Stations below to visit their websites.










Historic Data from Weather Underground
Select the location of interest below. Wairoa is the default. Please have patience, this Data is slow to load in.
Northern Hawkes Bay Historical Data
Daily Summary for January 4, 2017 Units:  Metric    English   Both
« Previous Day
Next Day »
Daily Weekly Monthly Yearly Custom
  High: Low: Average:
Temperature: 24.5 °C 11.0 °C 20.2 °C
Dew Point: 15.1 °C 6.6 °C 12.4 °C
Humidity: 86% 42% 62%
Wind Speed: 37.8km/h 0.0km/h 11.8km/h
Wind Gust: 58.7km/h - -
Wind- - WSW
Pressure: 1015.5 hPa 1002.9 hPa -
Precipitation: 0.3 mm    
Historical Graphs
 
 
Tabular Data for January 4, 2017
Time Temperature Dew Point Pressure Wind Wind Speed Wind Gust Humidity Rainfall Rate (Hourly) solar
00:02 22.0 °C 14.7 °C 1003.9 hPa NNW 5.0 km/h 14.8 km/h 63% 0.0 mm 0 W/m2
00:07 21.9 °C 14.8 °C 1004.3 hPa NNW 5.0 km/h 12.2 km/h 64% 0.0 mm 0 W/m2
00:12 22.1 °C 14.7 °C 1004.3 hPa NNW 11.1 km/h 19.5 km/h 63% 0.0 mm 0 W/m2
00:17 21.9 °C 14.8 °C 1004.3 hPa NNW 11.1 km/h 19.5 km/h 64% 0.0 mm 0 W/m2
00:23 21.9 °C 14.6 °C 1003.9 hPa NNW 12.2 km/h 21.9 km/h 63% 0.0 mm 0 W/m2
00:28 22.1 °C 14.5 °C 1003.9 hPa NNW 6.1 km/h 21.9 km/h 62% 0.0 mm 0 W/m2
00:33 21.7 °C 14.4 °C 1004.3 hPa North 6.1 km/h 15.8 km/h 63% 0.0 mm 0 W/m2
00:38 21.7 °C 14.4 °C 1004.3 hPa NNW 6.1 km/h 15.8 km/h 63% 0.0 mm 0 W/m2
00:44 21.3 °C 14.2 °C 1003.9 hPa NNW 6.1 km/h 15.8 km/h 64% 0.0 mm 0 W/m2
00:49 21.3 °C 14.4 °C 1004.3 hPa North 3.5 km/h 11.1 km/h 65% 0.0 mm 0 W/m2
00:54 20.9 °C 14.3 °C 1003.9 hPa North 6.1 km/h 14.8 km/h 66% 0.0 mm 0 W/m2
00:59 21.3 °C 14.0 °C 1003.9 hPa North 11.1 km/h 20.9 km/h 63% 0.0 mm 0 W/m2
01:04 21.3 °C 13.7 °C 1003.9 hPa North 7.2 km/h 20.9 km/h 62% 0.0 mm 0 W/m2
01:09 21.4 °C 13.8 °C 1004.3 hPa NNW 6.1 km/h 14.8 km/h 62% 0.0 mm 0 W/m2
01:14 21.2 °C 13.7 °C 1003.9 hPa NNW 6.1 km/h 14.8 km/h 62% 0.0 mm 0 W/m2
01:19 21.2 °C 13.7 °C 1003.9 hPa NNW 8.7 km/h 13.4 km/h 62% 0.0 mm 0 W/m2
01:24 21.2 °C 13.7 °C 1003.9 hPa NNW 3.5 km/h 13.4 km/h 62% 0.0 mm 0 W/m2
01:29 21.0 °C 13.4 °C 1003.9 hPa NNW 5.0 km/h 13.4 km/h 62% 0.0 mm 0 W/m2
01:34 20.8 °C 13.8 °C 1003.9 hPa NNW 3.5 km/h 9.7 km/h 64% 0.0 mm 0 W/m2
01:39 20.5 °C 13.9 °C 1004.3 hPa North 2.6 km/h 9.7 km/h 66% 0.0 mm 0 W/m2
01:44 20.3 °C 14.0 °C 1004.3 hPa North 3.5 km/h 9.7 km/h 67% 0.0 mm 0 W/m2
01:49 20.2 °C 14.1 °C 1003.9 hPa North 6.1 km/h 9.7 km/h 68% 0.0 mm 0 W/m2
01:54 20.1 °C 14.0 °C 1003.9 hPa North 3.5 km/h 9.7 km/h 68% 0.0 mm 0 W/m2
01:59 20.2 °C 13.9 °C 1003.9 hPa NNW 7.2 km/h 19.5 km/h 67% 0.0 mm 0 W/m2
02:04 20.4 °C 13.8 °C 1003.9 hPa NNW 12.2 km/h 19.5 km/h 66% 0.0 mm 0 W/m2
02:09 20.7 °C 13.9 °C 1003.9 hPa North 7.2 km/h 18.3 km/h 65% 0.0 mm 0 W/m2
02:14 20.5 °C 13.7 °C 1003.9 hPa North 6.1 km/h 18.3 km/h 65% 0.0 mm 0 W/m2
02:19 20.4 °C 13.6 °C 1003.6 hPa North 8.7 km/h 17.2 km/h 65% 0.0 mm 0 W/m2
02:24 20.4 °C 13.6 °C 1003.6 hPa NNW 11.1 km/h 21.9 km/h 65% 0.0 mm 0 W/m2
02:29 20.6 °C 13.8 °C 1003.6 hPa NNW 9.7 km/h 21.9 km/h 65% 0.0 mm 0 W/m2
02:34 20.4 °C 13.4 °C 1003.6 hPa North 9.7 km/h 19.5 km/h 64% 0.0 mm 0 W/m2
02:39 20.4 °C 13.4 °C 1003.6 hPa North 7.2 km/h 19.5 km/h 64% 0.0 mm 0 W/m2
02:44 20.2 °C 13.4 °C 1003.6 hPa North 8.7 km/h 18.3 km/h 65% 0.0 mm 0 W/m2
02:49 20.4 °C 13.6 °C 1003.3 hPa North 7.2 km/h 17.2 km/h 65% 0.0 mm 0 W/m2
02:54 20.0 °C 13.2 °C 1003.3 hPa North 8.7 km/h 17.2 km/h 65% 0.0 mm 0 W/m2
02:59 19.8 °C 13.5 °C 1003.3 hPa NNW 6.1 km/h 13.4 km/h 67% 0.0 mm 0 W/m2
03:04 19.7 °C 13.4 °C 1003.3 hPa NNW 3.5 km/h 13.4 km/h 67% 0.0 mm 0 W/m2
03:09 19.2 °C 12.9 °C 1003.3 hPa NNW 1.1 km/h 9.7 km/h 67% 0.0 mm 0 W/m2
03:14 19.1 °C 13.1 °C 1003.3 hPa NW 3.5 km/h 6.1 km/h 68% 0.0 mm 0 W/m2
03:19 18.8 °C 13.4 °C 1003.3 hPa NW 3.5 km/h 8.7 km/h 71% 0.0 mm 0 W/m2
03:24 18.6 °C 13.2 °C 1003.3 hPa NW 1.1 km/h 8.7 km/h 71% 0.0 mm 0 W/m2
03:30 18.3 °C 13.2 °C 1002.9 hPa Calm   7.2 km/h 72% 0.0 mm 0 W/m2
03:35 18.2 °C 13.3 °C 1003.3 hPa NNW 1.1 km/h 7.2 km/h 73% 0.0 mm 0 W/m2
03:40 18.1 °C 13.4 °C 1003.3 hPa NNW 5.0 km/h 7.2 km/h 74% 0.0 mm 0 W/m2
03:45 18.0 °C 13.3 °C 1003.3 hPa NNW 5.0 km/h 7.2 km/h 74% 0.0 mm 0 W/m2
03:50 18.1 °C 13.4 °C 1002.9 hPa NNW 3.5 km/h 7.2 km/h 74% 0.0 mm 0 W/m2
03:55 18.4 °C 13.5 °C 1002.9 hPa NNW 5.0 km/h 11.1 km/h 73% 0.0 mm 0 W/m2
04:00 18.7 °C 13.6 °C 1002.9 hPa NNW 7.2 km/h 14.8 km/h 72% 0.0 mm 0 W/m2
04:05 18.7 °C 13.1 °C 1002.9 hPa NW 5.0 km/h 15.8 km/h 70% 0.0 mm 0 W/m2
04:10 19.1 °C 13.3 °C 1002.9 hPa NW 7.2 km/h 15.8 km/h 69% 0.0 mm 0 W/m2
04:15 19.0 °C 13.2 °C 1002.9 hPa NW 3.5 km/h 12.2 km/h 69% 0.0 mm 0 W/m2
04:20 19.2 °C 13.2 °C 1002.9 hPa NW 8.7 km/h 20.9 km/h 68% 0.0 mm 0 W/m2
04:25 19.2 °C 12.9 °C 1002.9 hPa NNW 7.2 km/h 20.9 km/h 67% 0.0 mm 0 W/m2
04:30 19.6 °C 13.3 °C 1002.9 hPa NNW 7.2 km/h 19.5 km/h 67% 0.0 mm 0 W/m2
04:36 19.3 °C 13.1 °C 1002.9 hPa NNW 8.7 km/h 15.8 km/h 67% 0.0 mm 0 W/m2
04:41 19.4 °C 13.3 °C 1002.9 hPa NNW 7.2 km/h 15.8 km/h 68% 0.0 mm 0 W/m2
04:46 19.0 °C 12.9 °C 1002.9 hPa NW 7.2 km/h 13.4 km/h 68% 0.0 mm 0 W/m2
04:51 18.8 °C 13.2 °C 1003.3 hPa NW 7.2 km/h 12.2 km/h 70% 0.0 mm 0 W/m2
04:56 18.5 °C 13.2 °C 1003.3 hPa NW 8.7 km/h 12.2 km/h 71% 0.0 mm 0 W/m2
05:01 18.6 °C 13.2 °C 1003.3 hPa NW 8.7 km/h 14.8 km/h 71% 0.0 mm 0 W/m2
05:06 18.5 °C 13.2 °C 1003.3 hPa NW 5.0 km/h 14.8 km/h 71% 0.0 mm 0 W/m2
05:11 18.6 °C 13.2 °C 1003.3 hPa NW 7.2 km/h 15.8 km/h 71% 0.0 mm 0 W/m2
05:16 19.0 °C 12.9 °C 1003.3 hPa NNW 15.8 km/h 19.5 km/h 68% 0.0 mm 0 W/m2
05:21 19.2 °C 12.9 °C 1003.3 hPa NNW 8.7 km/h 21.9 km/h 67% 0.0 mm 0 W/m2
05:26 19.3 °C 12.8 °C 1003.3 hPa NNW 9.7 km/h 24.5 km/h 66% 0.0 mm 0 W/m2
05:31 19.3 °C 12.8 °C 1003.6 hPa NNW 11.1 km/h 24.5 km/h 66% 0.0 mm 0 W/m2
05:36 19.7 °C 12.9 °C 1003.6 hPa NW 11.1 km/h 23.3 km/h 65% 0.0 mm 0 W/m2
05:41 20.1 °C 12.8 °C 1003.6 hPa NW 14.8 km/h 24.5 km/h 63% 0.0 mm 0 W/m2
05:46 20.1 °C 12.6 °C 1003.9 hPa NW 9.7 km/h 24.5 km/h 62% 0.0 mm 2 W/m2
05:51 20.0 °C 12.8 °C 1003.9 hPa NW 17.2 km/h 23.3 km/h 63% 0.0 mm 4 W/m2
05:56 19.9 °C 12.9 °C 1003.6 hPa NNW 8.7 km/h 21.9 km/h 64% 0.0 mm 6 W/m2
06:01 19.7 °C 12.7 °C 1003.6 hPa NNW 13.4 km/h 21.9 km/h 64% 0.0 mm 10 W/m2
06:07 19.6 °C 12.6 °C 1003.9 hPa NNW 12.2 km/h 20.9 km/h 64% 0.0 mm 13 W/m2
06:12 19.7 °C 12.4 °C 1003.9 hPa NW 9.7 km/h 20.9 km/h 63% 0.0 mm 16 W/m2
06:17 19.8 °C 12.3 °C 1003.9 hPa NW 8.7 km/h 19.5 km/h 62% 0.0 mm 19 W/m2
06:22 19.7 °C 12.4 °C 1003.6 hPa NNW 13.4 km/h 19.5 km/h 63% 0.0 mm 22 W/m2
06:27 20.0 °C 12.0 °C 1003.9 hPa NW 11.1 km/h 21.9 km/h 60% 0.0 mm 26 W/m2
06:32 20.2 °C 11.7 °C 1003.6 hPa NW 13.4 km/h 24.5 km/h 58% 0.0 mm 29 W/m2
06:37 20.3 °C 12.1 °C 1003.9 hPa NW 11.1 km/h 24.5 km/h 59% 0.0 mm 68 W/m2
06:42 20.5 °C 11.9 °C 1003.9 hPa NW 13.4 km/h 20.9 km/h 58% 0.0 mm 79 W/m2
06:47 20.7 °C 11.9 °C 1003.9 hPa NW 18.3 km/h 25.6 km/h 57% 0.0 mm 89 W/m2
06:52 20.9 °C 12.1 °C 1003.9 hPa NNW 9.7 km/h 25.6 km/h 57% 0.0 mm 96 W/m2
06:57 21.0 °C 11.6 °C 1003.6 hPa NNW 12.2 km/h 19.5 km/h 55% 0.0 mm 114 W/m2
07:02 21.1 °C 11.7 °C 1003.9 hPa NNW 6.1 km/h 19.5 km/h 55% 0.0 mm 125 W/m2
07:07 21.2 °C 11.8 °C 1003.9 hPa NNW 14.8 km/h 19.5 km/h 55% 0.0 mm 138 W/m2
07:12 21.2 °C 11.8 °C 1003.9 hPa NW 9.7 km/h 19.5 km/h 55% 0.0 mm 153 W/m2
07:17 21.3 °C 11.6 °C 1003.9 hPa NW 17.2 km/h 23.3 km/h 54% 0.0 mm 163 W/m2
07:22 21.3 °C 11.6 °C 1003.9 hPa NNW 8.7 km/h 23.3 km/h 54% 0.0 mm 178 W/m2
07:27 21.6 °C 11.6 °C 1003.9 hPa NNW 12.2 km/h 24.5 km/h 53% 0.0 mm 190 W/m2
07:32 21.8 °C 12.1 °C 1004.3 hPa NNW 5.0 km/h 24.5 km/h 54% 0.0 mm 202 W/m2
07:37 22.0 °C 11.7 °C 1004.3 hPa NNW 2.6 km/h 18.3 km/h 52% 0.0 mm 215 W/m2
07:42 22.4 °C 12.1 °C 1004.3 hPa NW 3.5 km/h 14.8 km/h 52% 0.0 mm 230 W/m2
07:47 22.5 °C 11.9 °C 1004.3 hPa NW 7.2 km/h 14.8 km/h 51% 0.0 mm 246 W/m2
07:52 22.7 °C 12.1 °C 1004.3 hPa NW 7.2 km/h 14.8 km/h 51% 0.0 mm 259 W/m2
07:57 22.9 °C 12.2 °C 1004.3 hPa NW 6.1 km/h 12.2 km/h 51% 0.0 mm 274 W/m2
08:02 23.0 °C 11.7 °C 1004.3 hPa NW 5.0 km/h 12.2 km/h 49% 0.0 mm 286 W/m2
08:07 22.8 °C 11.6 °C 1004.3 hPa NNW 9.7 km/h 18.3 km/h 49% 0.0 mm 299 W/m2
08:12 22.7 °C 11.4 °C 1004.3 hPa NW 9.7 km/h 25.6 km/h 49% 0.0 mm 318 W/m2
08:17 22.7 °C 11.8 °C 1004.3 hPa NW 12.2 km/h 25.6 km/h 50% 0.0 mm 328 W/m2
08:22 22.5 °C 11.3 °C 1004.3 hPa NNW 14.8 km/h 28.0 km/h 49% 0.0 mm 344 W/m2
08:27 22.6 °C 11.7 °C 1004.3 hPa NNW 17.2 km/h 28.0 km/h 50% 0.0 mm 362 W/m2
08:32 22.6 °C 10.7 °C 1004.3 hPa NNW 15.8 km/h 27.0 km/h 47% 0.0 mm 378 W/m2
08:37 22.6 °C 10.7 °C 1004.6 hPa NW 15.8 km/h 27.0 km/h 47% 0.0 mm 395 W/m2
08:54 22.9 °C 10.7 °C 1004.6 hPa NW 11.1 km/h 30.6 km/h 46% 0.0 mm 460 W/m2
08:59 23.4 °C 11.4 °C 1004.6 hPa West 11.1 km/h 21.9 km/h 47% 0.0 mm 472 W/m2
09:05 23.1 °C 10.9 °C 1004.6 hPa NW 17.2 km/h 27.0 km/h 46% 0.0 mm 502 W/m2
09:10 23.1 °C 10.9 °C 1004.6 hPa NW 12.2 km/h 27.0 km/h 46% 0.0 mm 515 W/m2
09:15 23.3 °C 11.1 °C 1005.0 hPa NW 9.7 km/h 27.0 km/h 46% 0.0 mm 535 W/m2
09:20 23.1 °C 10.9 °C 1004.6 hPa NW 15.8 km/h 29.4 km/h 46% 0.0 mm 550 W/m2
09:25 23.0 °C 10.8 °C 1005.0 hPa NW 14.8 km/h 29.4 km/h 46% 0.0 mm 580 W/m2
09:30 23.3 °C 11.1 °C 1004.6 hPa NW 19.5 km/h 33.1 km/h 46% 0.0 mm 610 W/m2
09:35 23.0 °C 10.4 °C 1005.0 hPa WNW 13.4 km/h 33.1 km/h 45% 0.0 mm 622 W/m2
09:40 23.1 °C 10.6 °C 1005.0 hPa NW 21.9 km/h 33.1 km/h 45% 0.0 mm 640 W/m2
09:45 23.4 °C 10.8 °C 1005.0 hPa NW 8.7 km/h 29.4 km/h 45% 0.0 mm 667 W/m2
09:50 23.7 °C 11.1 °C 1005.0 hPa NW 11.1 km/h 29.4 km/h 45% 0.0 mm 690 W/m2
09:55 23.7 °C 11.1 °C 1005.0 hPa NW 12.2 km/h 21.9 km/h 45% 0.0 mm 708 W/m2
10:00 23.5 °C 10.9 °C 1005.3 hPa NW 14.8 km/h 21.9 km/h 45% 0.0 mm 719 W/m2
10:05 23.7 °C 11.4 °C 1005.0 hPa WNW 8.7 km/h 23.3 km/h 46% 0.0 mm 738 W/m2
10:10 23.9 °C 10.9 °C 1005.0 hPa NW 13.4 km/h 23.3 km/h 44% 0.0 mm 755 W/m2
10:15 23.4 °C 10.8 °C 1005.0 hPa NW 11.1 km/h 28.0 km/h 45% 0.0 mm 764 W/m2
10:20 23.5 °C 10.9 °C 1005.0 hPa NW 12.2 km/h 28.0 km/h 45% 0.0 mm 780 W/m2
10:25 23.5 °C 10.6 °C 1005.0 hPa NW 13.4 km/h 21.9 km/h 44% 0.0 mm 796 W/m2
10:30 23.5 °C 10.9 °C 1005.0 hPa NW 17.2 km/h 23.3 km/h 45% 0.0 mm 804 W/m2
10:35 23.5 °C 10.9 °C 1004.6 hPa NW 15.8 km/h 30.6 km/h 45% 0.0 mm 822 W/m2
10:40 23.5 °C 11.2 °C 1004.6 hPa NW 13.4 km/h 30.6 km/h 46% 0.0 mm 833 W/m2
10:45 23.5 °C 10.9 °C 1005.0 hPa NW 15.8 km/h 24.5 km/h 45% 0.0 mm 842 W/m2
10:50 23.4 °C 10.8 °C 1004.6 hPa NW 13.4 km/h 27.0 km/h 45% 0.0 mm 864 W/m2
10:55 23.5 °C 10.9 °C 1005.0 hPa NNW 9.7 km/h 27.0 km/h 45% 0.0 mm 894 W/m2
11:00 23.9 °C 11.3 °C 1005.0 hPa NNW 11.1 km/h 27.0 km/h 45% 0.0 mm 970 W/m2
11:05 24.5 °C 11.1 °C 1005.3 hPa NW 12.2 km/h 23.3 km/h 43% 0.0 mm 948 W/m2
11:10 24.4 °C 10.7 °C 1005.3 hPa NW 9.7 km/h 17.2 km/h 42% 0.0 mm 957 W/m2
11:15 24.3 °C 11.9 °C 1005.3 hPa WNW 8.7 km/h 19.5 km/h 46% 0.0 mm 965 W/m2
11:20 23.8 °C 12.8 °C 1005.3 hPa West 3.5 km/h 19.5 km/h 50% 0.0 mm 1000 W/m2
11:25 23.5 °C 12.2 °C 1005.3 hPa SW 7.2 km/h 19.5 km/h 49% 0.0 mm 978 W/m2
11:30 23.7 °C 13.0 °C 1005.3 hPa SSW 11.1 km/h 19.5 km/h 51% 0.0 mm 1066 W/m2
11:35 23.5 °C 12.5 °C 1005.0 hPa SSW 13.4 km/h 20.9 km/h 50% 0.0 mm 1075 W/m2
11:40 23.3 °C 11.7 °C 1005.3 hPa SSW 15.8 km/h 21.9 km/h 48% 0.0 mm 1026 W/m2
11:45 23.2 °C 13.1 °C 1005.3 hPa SSW 11.1 km/h 21.9 km/h 53% 0.0 mm 1057 W/m2
11:50 23.2 °C 12.2 °C 1005.3 hPa SSW 13.4 km/h 20.9 km/h 50% 0.0 mm 1061 W/m2
11:55 22.8 °C 12.7 °C 1005.0 hPa SSW 11.1 km/h 19.5 km/h 53% 0.0 mm 1072 W/m2
12:11 22.8 °C 12.4 °C 1005.3 hPa SSW 14.8 km/h 24.5 km/h 52% 0.0 mm 1004 W/m2
12:16 23.0 °C 11.7 °C 1005.0 hPa SSW 17.2 km/h 24.5 km/h 49% 0.0 mm 1019 W/m2
12:21 22.6 °C 12.6 °C 1005.3 hPa SSW 11.1 km/h 24.5 km/h 53% 0.0 mm 1027 W/m2
12:26 23.0 °C 12.3 °C 1005.3 hPa SW 11.1 km/h 21.9 km/h 51% 0.0 mm 998 W/m2
12:31 23.2 °C 11.6 °C 1005.3 hPa SW 15.8 km/h 23.3 km/h 48% 0.0 mm 996 W/m2
12:36 23.0 °C 12.1 °C 1005.3 hPa SSW 8.7 km/h 23.3 km/h 50% 0.0 mm 973 W/m2
12:41 23.4 °C 11.4 °C 1005.3 hPa SSW 14.8 km/h 20.9 km/h 47% 0.0 mm 968 W/m2
12:46 23.3 °C 11.4 °C 1005.3 hPa SSW 13.4 km/h 20.9 km/h 47% 0.0 mm 985 W/m2
12:51 22.9 °C 12.2 °C 1005.3 hPa South 17.2 km/h 21.9 km/h 51% 0.0 mm 964 W/m2
12:56 23.0 °C 11.4 °C 1005.3 hPa South 12.2 km/h 21.9 km/h 48% 0.0 mm 955 W/m2
13:01 23.3 °C 12.3 °C 1005.3 hPa SSW 13.4 km/h 21.9 km/h 50% 0.0 mm 960 W/m2
13:06 23.4 °C 12.4 °C 1005.0 hPa SSW 11.1 km/h 20.9 km/h 50% 0.0 mm 962 W/m2
13:11 23.0 °C 13.2 °C 1005.0 hPa South 11.1 km/h 19.5 km/h 54% 0.0 mm 965 W/m2
13:16 22.6 °C 12.3 °C 1005.3 hPa South 13.4 km/h 18.3 km/h 52% 0.0 mm 950 W/m2
13:21 22.9 °C 11.3 °C 1005.3 hPa South 12.2 km/h 18.3 km/h 48% 0.0 mm 946 W/m2
13:26 23.1 °C 13.3 °C 1005.0 hPa South 1.1 km/h 18.3 km/h 54% 0.0 mm 946 W/m2
13:31 24.0 °C 11.7 °C 1005.0 hPa South 8.7 km/h 18.3 km/h 46% 0.0 mm 946 W/m2
13:36 23.5 °C 11.6 °C 1005.0 hPa SSE 6.1 km/h 17.2 km/h 47% 0.0 mm 938 W/m2
13:41 23.4 °C 11.1 °C 1005.0 hPa South 7.2 km/h 15.8 km/h 46% 0.0 mm 933 W/m2
13:46 24.0 °C 12.7 °C 1005.0 hPa South 7.2 km/h 15.8 km/h 49% 0.0 mm 928 W/m2
13:51 24.3 °C 12.3 °C 1005.0 hPa SSE 5.0 km/h 14.8 km/h 47% 0.0 mm 925 W/m2
13:56 24.4 °C 13.0 °C 1005.0 hPa SE 11.1 km/h 15.8 km/h 49% 0.0 mm 928 W/m2
14:01 24.2 °C 13.7 °C 1005.0 hPa SE 9.7 km/h 17.2 km/h 52% 0.0 mm 884 W/m2
14:06 23.2 °C 14.2 °C 1005.0 hPa SSE 11.1 km/h 24.5 km/h 57% 0.0 mm 201 W/m2
14:11 22.3 °C 13.1 °C 1005.0 hPa SSE 8.7 km/h 24.5 km/h 56% 0.0 mm 881 W/m2
14:17 22.9 °C 13.7 °C 1005.3 hPa ESE 9.7 km/h 20.9 km/h 56% 0.0 mm 885 W/m2
14:22 22.7 °C 13.8 °C 1005.0 hPa SE 7.2 km/h 19.5 km/h 57% 0.0 mm 874 W/m2
14:27 22.7 °C 14.8 °C 1005.0 hPa SE 8.7 km/h 19.5 km/h 61% 0.0 mm 869 W/m2
14:32 22.4 °C 13.5 °C 1005.0 hPa SE 11.1 km/h 21.9 km/h 57% 0.0 mm 862 W/m2
14:37 22.2 °C 13.8 °C 1005.0 hPa SSE 11.1 km/h 21.9 km/h 59% 0.0 mm 535 W/m2
14:42 21.9 °C 15.1 °C 1005.0 hPa SSE 6.1 km/h 17.2 km/h 65% 0.0 mm 859 W/m2
14:47 22.1 °C 15.0 °C 1005.0 hPa SE 11.1 km/h 18.3 km/h 64% 0.0 mm 829 W/m2
14:52 22.0 °C 14.2 °C 1005.0 hPa SE 9.7 km/h 18.3 km/h 61% 0.0 mm 827 W/m2
14:57 22.2 °C 14.6 °C 1004.6 hPa SSE 9.7 km/h 18.3 km/h 62% 0.0 mm 815 W/m2
15:02 22.3 °C 14.4 °C 1005.3 hPa SSE 12.2 km/h 18.3 km/h 61% 0.0 mm 811 W/m2
15:07 21.9 °C 14.8 °C 1005.0 hPa SSE 11.1 km/h 24.5 km/h 64% 0.0 mm 802 W/m2
15:12 21.7 °C 14.6 °C 1005.0 hPa SE 8.7 km/h 24.5 km/h 64% 0.0 mm 790 W/m2
15:17 21.9 °C 14.6 °C 1005.0 hPa SE 7.2 km/h 20.9 km/h 63% 0.0 mm 775 W/m2
15:22 22.3 °C 14.7 °C 1005.0 hPa SSE 9.7 km/h 18.3 km/h 62% 0.0 mm 766 W/m2
15:27 22.0 °C 14.7 °C 1004.6 hPa SE 8.7 km/h 18.3 km/h 63% 0.0 mm 754 W/m2
15:32 22.0 °C 14.4 °C 1004.6 hPa SSE 11.1 km/h 19.5 km/h 62% 0.0 mm 745 W/m2
15:37 21.8 °C 14.4 °C 1005.0 hPa SSE 9.7 km/h 19.5 km/h 63% 0.0 mm 731 W/m2
15:42 21.9 °C 14.8 °C 1005.0 hPa SSE 12.2 km/h 19.5 km/h 64% 0.0 mm 721 W/m2
15:47 22.4 °C 14.3 °C 1004.6 hPa SSE 8.7 km/h 17.2 km/h 60% 0.0 mm 708 W/m2
15:52 22.4 °C 14.8 °C 1004.6 hPa SE 5.0 km/h 17.2 km/h 62% 0.0 mm 698 W/m2
15:57 22.5 °C 14.4 °C 1005.0 hPa SE 9.7 km/h 14.8 km/h 60% 0.0 mm 691 W/m2
16:02 22.1 °C 14.2 °C 1005.0 hPa SSE 7.2 km/h 19.5 km/h 61% 0.0 mm 676 W/m2
16:07 22.1 °C 14.5 °C 1004.6 hPa SSE 8.7 km/h 19.5 km/h 62% 0.0 mm 662 W/m2
16:12 22.3 °C 14.7 °C 1005.0 hPa SE 13.4 km/h 23.3 km/h 62% 0.0 mm 654 W/m2
16:17 22.1 °C 14.5 °C 1005.0 hPa SE 11.1 km/h 23.3 km/h 62% 0.0 mm 643 W/m2
16:22 21.6 °C 14.3 °C 1005.0 hPa SE 11.1 km/h 21.9 km/h 63% 0.0 mm 637 W/m2
16:28 21.8 °C 14.4 °C 1005.0 hPa SE 6.1 km/h 18.3 km/h 63% 0.0 mm 250 W/m2
16:33 21.2 °C 13.9 °C 1005.0 hPa SSE 8.7 km/h 18.3 km/h 63% 0.0 mm 626 W/m2
16:38 21.6 °C 14.3 °C 1004.6 hPa SSE 6.1 km/h 18.3 km/h 63% 0.0 mm 589 W/m2
16:43 22.4 °C 14.5 °C 1005.0 hPa SSE 5.0 km/h 18.3 km/h 61% 0.0 mm 575 W/m2
16:48 22.8 °C 14.1 °C 1005.0 hPa SSE 5.0 km/h 14.8 km/h 58% 0.0 mm 561 W/m2
16:53 22.5 °C 14.1 °C 1004.6 hPa SE 7.2 km/h 14.8 km/h 59% 0.0 mm 551 W/m2
16:58 22.5 °C 14.1 °C 1004.6 hPa SE 8.7 km/h 18.3 km/h 59% 0.0 mm 535 W/m2
17:03 22.7 °C 13.5 °C 1004.6 hPa SE 6.1 km/h 18.3 km/h 56% 0.0 mm 526 W/m2
17:08 23.2 °C 13.9 °C 1004.6 hPa SE 8.7 km/h 13.4 km/h 56% 0.0 mm 516 W/m2
17:13 22.8 °C 13.0 °C 1004.6 hPa SE 6.1 km/h 17.2 km/h 54% 0.0 mm 510 W/m2
17:18 23.1 °C 13.6 °C 1004.6 hPa SSE 12.2 km/h 18.3 km/h 55% 0.0 mm 423 W/m2
17:23 22.5 °C 12.7 °C 1004.6 hPa SSE 9.7 km/h 18.3 km/h 54% 0.0 mm 191 W/m2
17:28 21.6 °C 13.3 °C 1005.0 hPa SE 7.2 km/h 17.2 km/h 59% 0.0 mm 584 W/m2
17:33 22.4 °C 14.3 °C 1005.0 hPa SE 7.2 km/h 17.2 km/h 60% 0.0 mm 541 W/m2
17:38 22.7 °C 14.3 °C 1004.6 hPa ESE 7.2 km/h 17.2 km/h 59% 0.0 mm 460 W/m2
17:43 22.6 °C 14.4 °C 1005.0 hPa ESE 8.7 km/h 17.2 km/h 60% 0.0 mm 437 W/m2
17:48 22.5 °C 14.1 °C 1005.0 hPa SE 12.2 km/h 19.5 km/h 59% 0.0 mm 428 W/m2
17:53 22.1 °C 14.2 °C 1005.0 hPa SSE 8.7 km/h 19.5 km/h 61% 0.0 mm 426 W/m2
17:58 22.2 °C 14.3 °C 1005.3 hPa SE 8.7 km/h 15.8 km/h 61% 0.0 mm 116 W/m2
18:03 21.1 °C 14.1 °C 1005.3 hPa SSE 8.7 km/h 15.8 km/h 64% 0.0 mm 126 W/m2
18:08 20.4 °C 14.1 °C 1005.6 hPa SSE 7.2 km/h 20.9 km/h 67% 0.0 mm 158 W/m2
18:13 20.3 °C 14.0 °C 1005.3 hPa SSE 7.2 km/h 20.9 km/h 67% 0.0 mm 137 W/m2
18:18 20.2 °C 13.7 °C 1005.6 hPa SE 8.7 km/h 18.3 km/h 66% 0.0 mm 121 W/m2
18:23 19.7 °C 13.7 °C 1005.6 hPa ESE 11.1 km/h 18.3 km/h 68% 0.0 mm 107 W/m2
18:28 19.5 °C 13.9 °C 1005.6 hPa ESE 9.7 km/h 17.2 km/h 70% 0.0 mm 122 W/m2
18:33 19.4 °C 14.0 °C 1006.0 hPa SSE 3.5 km/h 14.8 km/h 71% 0.0 mm 83 W/m2
18:38 19.3 °C 13.7 °C 1006.0 hPa SSE 6.1 km/h 15.8 km/h 70% 0.0 mm 74 W/m2
18:43 19.2 °C 13.8 °C 1006.0 hPa SE 6.1 km/h 15.8 km/h 71% 0.0 mm 61 W/m2
18:48 19.2 °C 13.6 °C 1006.3 hPa SE 7.2 km/h 17.2 km/h 70% 0.0 mm 68 W/m2
18:53 19.2 °C 13.8 °C 1006.3 hPa SE 7.2 km/h 17.2 km/h 71% 0.0 mm 101 W/m2
18:58 19.1 °C 13.9 °C 1007.0 hPa SSE 9.7 km/h 14.8 km/h 72% 0.0 mm 72 W/m2
19:03 19.0 °C 13.6 °C 1006.7 hPa SSE 3.5 km/h 14.8 km/h 71% 0.0 mm 71 W/m2
19:08 19.1 °C 13.7 °C 1007.0 hPa SSE 2.6 km/h 12.2 km/h 71% 0.0 mm 182 W/m2
19:13 19.6 °C 13.8 °C 1007.0 hPa SSE 3.5 km/h 11.1 km/h 69% 0.0 mm 64 W/m2
19:19 19.3 °C 13.5 °C 1007.3 hPa SSE 8.7 km/h 15.8 km/h 69% 0.0 mm 83 W/m2
19:24 19.3 °C 13.9 °C 1007.3 hPa South 5.0 km/h 15.8 km/h 71% 0.0 mm 167 W/m2
19:29 20.4 °C 14.1 °C 1007.3 hPa SSE 3.5 km/h 9.7 km/h 67% 0.0 mm 163 W/m2
19:34 20.6 °C 13.6 °C 1007.7 hPa SSE 8.7 km/h 12.2 km/h 64% 0.0 mm 127 W/m2
19:39 20.8 °C 13.8 °C 1008.0 hPa SSE 5.0 km/h 12.2 km/h 64% 0.0 mm 124 W/m2
19:44 20.9 °C 13.8 °C 1007.7 hPa SE 3.5 km/h 12.2 km/h 64% 0.0 mm 111 W/m2
19:49 21.0 °C 13.7 °C 1008.0 hPa SE 2.6 km/h 9.7 km/h 63% 0.0 mm 103 W/m2
19:54 20.6 °C 13.6 °C 1008.0 hPa SSE 3.5 km/h 12.2 km/h 64% 0.0 mm 49 W/m2
19:59 19.9 °C 13.6 °C 1008.4 hPa South 2.6 km/h 13.4 km/h 67% 0.0 mm 41 W/m2
20:04 19.8 °C 13.9 °C 1008.4 hPa South 2.6 km/h 13.4 km/h 69% 0.0 mm 26 W/m2
20:09 18.5 °C 12.7 °C 1009.4 hPa SSE 29.4 km/h 42.8 km/h 69% 0.0 mm 16 W/m2
20:14 15.8 °C 11.8 °C 1009.4 hPa South 27.0 km/h 52.6 km/h 77% 0.0 mm 17 W/m2
20:19 15.1 °C 11.9 °C 1010.0 hPa SSW 30.6 km/h 55.0 km/h 81% 0.0 mm 14 W/m2
20:24 14.8 °C 12.1 °C 1010.0 hPa SSW 30.6 km/h 55.0 km/h 84% 0.0 mm 9 W/m2
20:29 14.6 °C 11.9 °C 1010.4 hPa SSW 27.0 km/h 55.0 km/h 84% 0.0 mm 4 W/m2
20:34 14.4 °C 11.6 °C 1010.7 hPa SSW 29.4 km/h 48.9 km/h 83% 0.0 mm 4 W/m2
20:39 14.4 °C 11.4 °C 1010.7 hPa South 36.7 km/h 48.9 km/h 82% 0.0 mm 1 W/m2
20:49 14.2 °C 10.8 °C 1010.7 hPa SSW 30.6 km/h 55.0 km/h 80% 0.0 mm 0 W/m2
20:55 14.1 °C 10.3 °C 1011.1 hPa South 35.6 km/h 54.1 km/h 78% 0.0 mm 0 W/m2
21:00 14.1 °C 10.9 °C 1011.1 hPa SSW 33.1 km/h 54.1 km/h 81% 0.0 mm 0 W/m2
21:06 13.7 °C 11.1 °C 1011.4 hPa SSW 31.7 km/h 48.9 km/h 84% 0.0 mm 0 W/m2
21:11 13.5 °C 10.3 °C 1011.7 hPa SSW 25.6 km/h 58.7 km/h 81% 0.0 mm 0 W/m2
21:21 13.5 °C 10.1 °C 1012.4 hPa SSW 20.9 km/h 51.5 km/h 80% 0.0 mm 0 W/m2
21:26 13.4 °C 9.7 °C 1012.4 hPa SSW 19.5 km/h 50.0 km/h 78% 0.0 mm 0 W/m2
21:31 13.5 °C 9.7 °C 1012.8 hPa SSW 18.3 km/h 46.5 km/h 78% 0.0 mm 0 W/m2
21:36 13.5 °C 9.7 °C 1013.1 hPa SSW 30.6 km/h 43.9 km/h 78% 0.0 mm 0 W/m2
21:46 13.3 °C 9.6 °C 1013.4 hPa SSW 17.2 km/h 42.8 km/h 78% 0.0 mm 0 W/m2
21:51 13.3 °C 9.7 °C 1013.4 hPa SSW 31.7 km/h 48.9 km/h 79% 0.0 mm 0 W/m2
21:56 13.2 °C 9.4 °C 1013.4 hPa SSW 23.3 km/h 48.9 km/h 78% 0.0 mm 0 W/m2
22:01 13.1 °C 9.3 °C 1013.4 hPa SSW 29.4 km/h 50.0 km/h 78% 0.0 mm 0 W/m2
22:06 12.9 °C 8.9 °C 1013.4 hPa SSW 37.8 km/h 55.0 km/h 77% 0.0 mm 0 W/m2
22:11 13.0 °C 9.3 °C 1013.8 hPa SW 30.6 km/h 55.0 km/h 78% 0.0 mm 0 W/m2
22:16 13.0 °C 9.1 °C 1013.8 hPa SSW 25.6 km/h 54.1 km/h 77% 0.0 mm 0 W/m2
22:21 12.8 °C 8.7 °C 1013.8 hPa SSW 27.0 km/h 54.1 km/h 76% 0.0 mm 0 W/m2
22:26 12.7 °C 8.9 °C 1014.1 hPa SW 25.6 km/h 48.9 km/h 78% 0.0 mm 0 W/m2
22:32 12.7 °C 8.4 °C 1014.1 hPa SSW 28.0 km/h 47.9 km/h 75% 0.0 mm 0 W/m2
22:37 12.5 °C 8.4 °C 1014.1 hPa SSW 31.7 km/h 47.9 km/h 76% 0.0 mm 0 W/m2
22:47 11.9 °C 9.4 °C 1014.8 hPa SSW 31.7 km/h 51.5 km/h 85% 0.0 mm 0 W/m2
22:52 11.3 °C 9.1 °C 1014.4 hPa SSW 31.7 km/h 51.5 km/h 86% 0.3 mm 0 W/m2
22:57 11.4 °C 8.8 °C 1014.4 hPa SW 35.6 km/h 50.0 km/h 84% 0.3 mm 0 W/m2
23:02 11.6 °C 8.8 °C 1014.8 hPa SSW 25.6 km/h 50.0 km/h 83% 0.3 mm 0 W/m2
23:07 11.6 °C 8.3 °C 1014.4 hPa SW 19.5 km/h 47.9 km/h 80% 0.3 mm 0 W/m2
23:12 11.8 °C 8.8 °C 1014.8 hPa SW 25.6 km/h 47.9 km/h 82% 0.3 mm 0 W/m2
23:17 11.9 °C 9.1 °C 1014.8 hPa SSW 24.5 km/h 42.8 km/h 83% 0.3 mm 0 W/m2
23:22 11.6 °C 8.4 °C 1014.8 hPa South 35.6 km/h 50.0 km/h 81% 0.3 mm 0 W/m2
23:27 11.0 °C 7.3 °C 1015.1 hPa SSW 29.4 km/h 50.0 km/h 78% 0.3 mm 0 W/m2
23:32 11.1 °C 7.2 °C 1015.1 hPa SSW 23.3 km/h 45.4 km/h 77% 0.3 mm 0 W/m2
23:37 11.3 °C 7.1 °C 1015.5 hPa SW 13.4 km/h 39.3 km/h 75% 0.3 mm 0 W/m2
23:42 11.3 °C 6.8 °C 1015.1 hPa SW 18.3 km/h 36.7 km/h 74% 0.3 mm 0 W/m2
23:47 11.4 °C 6.6 °C 1015.1 hPa WSW 20.9 km/h 36.7 km/h 72% 0.3 mm 0 W/m2
23:52 11.6 °C 6.7 °C 1015.5 hPa SW 12.2 km/h 31.7 km/h 72% 0.0 mm 0 W/m2
23:57 11.6 °C 6.7 °C 1015.5 hPa SW 13.4 km/h 31.7 km/h 72% 0.0 mm 0 W/m2
Northern Hawkes Bay. New Zealand Historic Data
Compliments of Weather Underground - 2 mb